Miami, FL

3:35 PM EDT on July 26, 2016 (GMT -0400)
JA Richmond West | | Change Station

Elev 7 ft 25.61 °N, 80.43 °W | Updated 5 seconds ago

Partly Cloudy
Partly Cloudy
96.1 °F
Feels Like 113 °F
N
10.4
Wind Variable Wind from NE
Gusts 10.4 mph

Today
High -- | Low -- °F
--% Chance of Precip.
Yesterday
High -- | Low -- °F
Precip. -- in
Pressure 30.05 in
Visibility 10.0 miles
Clouds Few 3300 ft
Heat Index 113 °F
Dew Point 78 °F
Humidity 56%
Rainfall 0.00 in
Snow Depth Not available.
6:45 AM 8:10 PM
Waning Gibbous, 52% visible
METAR KTMB 261853Z 09011KT 10SM FEW033 32/23 A3005 RMK AO2 SLP174 T03220233
Pressure 30.05 in
Visibility 10.0 miles
Clouds Few 3300 ft
Heat Index 113 °F
Dew Point 78 °F
Humidity 56%
Rainfall 0.00 in
Snow Depth Not available.
6:45 AM 8:10 PM
Waning Gibbous, 52% visible
METAR KTMB 261853Z 09011KT 10SM FEW033 32/23 A3005 RMK AO2 SLP174 T03220233

10-Day Weather Forecast

Almanac

Astronomy

Jul. 26, 2016 Rise Set
Actual Time
Civil Twilight
Nautical Twilight
Astronomical Twilight
Moon
Length of Visible Light
Length of Day
Tomorrow will be .
, % of the Moon is Illuminated

Today's Extremes

State Highs State Lows

Community

WunderPhotos

Upload Photos

1,927,665 photos uploaded!

WunderBlog® & News

Nearby

Air Quality

  Air Quality AQ Index Pollutant
Not available.

Snow Depth

Station Depth Elevation

Earthquake Activity

City Distance Mag. Time & Date
Minimum magnitude displayed is 2.5.

Coastal Water Temperatures

Place Temperature

Stations

Nearby Weather Stations

Station Location Temp. Windchill Dew Point Humidity Wind Precip. Elev Updated Type
                   

Watches & Warnings

There are currently no watches in effect.